Time;durP1;ratioP1;P1;durP2;ratioP2;P2;SDS_P1;SDS_P2;PMS_P1;PMS_P2;Temp;Humidity;BMP_temperature;BMP_pressure;BME280_temperature;BME280_humidity;BME280_pressure;Samples;Min_cycle;Max_cycle;Signal;HPM_P1;HPM_P2
2021/01/02 00:02:27;;;;;;;28.02;15.05;;;0.10;94.30;;;;;;5127685;27;27344;-54
2021/01/02 00:05:12;;;;;;;32.83;16.05;;;0.10;94.20;;;;;;5128305;27;27431;-55
2021/01/02 00:08:29;;;;;;;29.65;15.18;;;0.00;93.80;;;;;;5128192;27;27408;-56
2021/01/02 00:11:52;;;;;;;28.48;15.77;;;0.00;93.90;;;;;;5117538;27;27568;-54
2021/01/02 00:15:07;;;;;;;27.80;16.35;;;0.00;93.70;;;;;;5124219;27;27593;-55
2021/01/02 00:18:04;;;;;;;27.38;15.32;;;-0.10;93.70;;;;;;5128192;27;27372;-55
2021/01/02 00:21:01;;;;;;;27.25;15.40;;;-0.10;93.70;;;;;;5128308;27;27921;-55
2021/01/02 00:23:55;;;;;;;29.35;15.70;;;-0.20;93.70;;;;;;5124894;27;27487;-56
2021/01/02 00:26:46;;;;;;;29.75;15.20;;;-0.20;93.60;;;;;;5128333;27;27359;-54
2021/01/02 00:30:09;;;;;;;26.38;14.73;;;-0.20;93.60;;;;;;5128329;27;27396;-54
2021/01/02 00:33:00;;;;;;;30.85;15.70;;;-0.20;93.60;;;;;;5124807;27;27884;-48
2021/01/02 00:35:48;;;;;;;28.15;16.50;;;-0.20;93.40;;;;;;5127100;27;27596;-54
2021/01/02 00:38:34;;;;;;;25.13;14.73;;;-0.30;93.40;;;;;;5124337;27;27472;-55
2021/01/02 00:41:19;;;;;;;28.92;15.18;;;-0.30;93.50;;;;;;5126967;27;27484;-55
2021/01/02 00:44:04;;;;;;;24.50;15.30;;;-0.30;93.60;;;;;;5127981;27;27878;-55
2021/01/02 00:46:49;;;;;;;26.80;14.60;;;-0.30;93.70;;;;;;5127881;27;27555;-55
2021/01/02 00:49:34;;;;;;;27.85;14.82;;;-0.20;93.80;;;;;;5126957;27;27495;-54
2021/01/02 00:53:05;;;;;;;25.65;14.43;;;-0.20;94.10;;;;;;5112618;27;27410;-55
2021/01/02 00:56:13;;;;;;;25.35;14.18;;;-0.20;94.20;;;;;;5123939;27;27462;-55
2021/01/02 00:59:30;;;;;;;24.80;12.65;;;-0.10;94.40;;;;;;5110532;27;27573;-56
2021/01/02 01:02:55;;;;;;;22.90;13.13;;;-0.10;94.60;;;;;;5110606;27;27529;-56
2021/01/02 01:05:40;;;;;;;25.05;14.35;;;0.00;94.70;;;;;;5126274;27;27391;-52
2021/01/02 01:08:25;;;;;;;23.52;13.38;;;0.00;94.70;;;;;;5111967;27;27381;-55
2021/01/02 01:11:11;;;;;;;22.63;13.48;;;0.00;94.80;;;;;;5127565;27;27607;-56
2021/01/02 01:13:55;;;;;;;25.27;13.82;;;0.00;94.80;;;;;;5127307;27;27405;-56
2021/01/02 01:16:43;;;;;;;22.67;12.38;;;0.00;94.90;;;;;;5126163;27;27377;-47
2021/01/02 01:19:28;;;;;;;26.60;13.98;;;0.10;95.10;;;;;;5127165;27;27393;-54
2021/01/02 01:22:12;;;;;;;19.08;12.30;;;0.10;95.10;;;;;;5127373;27;27375;-53
2021/01/02 01:25:06;;;;;;;22.63;12.75;;;0.10;95.00;;;;;;5111887;27;27356;-56
2021/01/02 01:27:54;;;;;;;24.35;12.60;;;0.10;95.10;;;;;;5127079;27;27318;-55
2021/01/02 01:30:40;;;;;;;22.23;12.57;;;0.10;95.10;;;;;;5123469;27;27413;-55
2021/01/02 01:33:30;;;;;;;21.60;12.77;;;0.20;95.10;;;;;;5126899;27;27373;-55
2021/01/02 01:36:24;;;;;;;21.65;12.75;;;0.20;95.20;;;;;;5126098;27;27444;-52
2021/01/02 01:39:19;;;;;;;21.00;12.32;;;0.20;95.20;;;;;;5111929;27;27473;-48
2021/01/02 01:42:05;;;;;;;19.85;12.07;;;0.20;95.20;;;;;;5126721;27;27428;-55
2021/01/02 01:44:56;;;;;;;21.98;12.38;;;0.20;95.20;;;;;;5127004;27;27476;-53
2021/01/02 01:47:41;;;;;;;20.25;12.13;;;0.20;95.30;;;;;;5126795;27;27476;-56
2021/01/02 01:50:30;;;;;;;23.65;13.23;;;0.30;95.40;;;;;;5126620;27;27396;-56
2021/01/02 01:54:09;;;;;;;18.48;11.32;;;0.30;95.40;;;;;;5125801;27;27938;-56
2021/01/02 01:56:54;;;;;;;21.55;11.80;;;0.30;95.40;;;;;;5120111;27;27437;-56
2021/01/02 01:59:56;;;;;;;19.02;11.15;;;0.30;95.40;;;;;;5111060;27;27409;-53
2021/01/02 02:02:47;;;;;;;16.90;11.25;;;0.30;95.50;;;;;;5122670;27;27347;-55
2021/01/02 02:05:48;;;;;;;17.98;11.57;;;0.30;95.50;;;;;;5126675;27;27460;-55
2021/01/02 02:08:43;;;;;;;17.83;11.85;;;0.30;95.50;;;;;;5126586;27;27374;-55
2021/01/02 02:11:33;;;;;;;20.25;11.82;;;0.40;95.60;;;;;;5126393;27;27365;-57
2021/01/02 02:14:36;;;;;;;22.70;11.57;;;0.30;95.60;;;;;;5126506;27;27411;-54
2021/01/02 02:17:42;;;;;;;23.10;11.88;;;0.40;95.60;;;;;;5126166;27;27967;-56
2021/01/02 02:20:28;;;;;;;19.08;10.85;;;0.40;95.60;;;;;;5125403;27;27479;-54
2021/01/02 02:23:14;;;;;;;21.83;12.43;;;0.40;95.60;;;;;;5125447;27;27410;-55
2021/01/02 02:26:06;;;;;;;20.80;12.27;;;0.50;95.70;;;;;;5125650;27;27445;-55
2021/01/02 02:28:50;;;;;;;19.10;11.35;;;0.50;95.90;;;;;;5125984;27;27859;-55
2021/01/02 02:31:43;;;;;;;19.48;11.63;;;0.50;95.90;;;;;;5126308;27;27334;-52
2021/01/02 02:34:27;;;;;;;19.38;12.20;;;0.50;95.90;;;;;;5124968;27;27673;-55
2021/01/02 02:37:12;;;;;;;23.73;12.45;;;0.50;95.90;;;;;;5125456;27;27396;-54
2021/01/02 02:39:56;;;;;;;18.35;11.27;;;0.50;96.00;;;;;;5126148;27;27384;-55
2021/01/02 02:42:44;;;;;;;20.15;10.82;;;0.50;96.00;;;;;;5125820;27;27445;-55
2021/01/02 02:45:32;;;;;;;15.93;10.30;;;0.60;96.00;;;;;;5125920;27;27388;-54
2021/01/02 02:48:17;;;;;;;18.42;11.32;;;0.60;96.00;;;;;;5125728;27;27452;-54
2021/01/02 02:51:02;;;;;;;19.98;11.38;;;0.60;96.00;;;;;;5124666;27;27553;-57
2021/01/02 02:53:49;;;;;;;19.23;11.07;;;0.60;96.10;;;;;;5125133;27;27449;-56
2021/01/02 02:56:33;;;;;;;19.77;11.23;;;0.60;96.10;;;;;;5125362;27;27550;-54
2021/01/02 02:59:18;;;;;;;18.40;11.23;;;0.60;96.00;;;;;;5124825;27;27496;-55
2021/01/02 03:02:06;;;;;;;17.90;11.25;;;0.70;96.10;;;;;;5125527;27;27456;-54
2021/01/02 03:04:50;;;;;;;20.88;11.80;;;0.70;96.10;;;;;;5125448;27;27322;-54
2021/01/02 03:07:42;;;;;;;19.60;11.73;;;0.70;96.10;;;;;;5110534;27;27473;-55
2021/01/02 03:10:27;;;;;;;19.38;10.80;;;0.70;96.10;;;;;;5125681;27;27409;-55
2021/01/02 03:13:11;;;;;;;19.55;11.10;;;0.70;96.10;;;;;;5125321;27;27414;-54
2021/01/02 03:15:56;;;;;;;17.65;10.90;;;0.70;96.10;;;;;;5125110;27;27523;-55
2021/01/02 03:18:40;;;;;;;18.10;11.40;;;0.70;96.10;;;;;;5125139;27;27591;-55
2021/01/02 03:21:25;;;;;;;17.73;10.60;;;0.70;96.10;;;;;;5125268;27;27365;-49
2021/01/02 03:24:09;;;;;;;19.83;11.60;;;0.80;96.20;;;;;;5125428;27;27883;-54
2021/01/02 03:26:54;;;;;;;20.77;12.45;;;0.80;96.20;;;;;;5106743;27;27363;-55
2021/01/02 03:29:38;;;;;;;21.15;11.70;;;0.80;96.20;;;;;;5125470;27;27331;-55
2021/01/02 03:32:23;;;;;;;22.05;12.30;;;0.80;96.20;;;;;;5124893;27;27347;-54
2021/01/02 03:35:09;;;;;;;18.67;10.60;;;0.80;96.30;;;;;;5123956;27;27332;-53
2021/01/02 03:37:54;;;;;;;21.05;12.00;;;0.80;96.30;;;;;;5125044;27;27404;-56
2021/01/02 03:40:38;;;;;;;18.45;11.30;;;0.80;96.30;;;;;;5109782;27;27331;-55
2021/01/02 03:43:24;;;;;;;18.42;10.68;;;0.80;96.30;;;;;;5125272;27;26945;-55
2021/01/02 03:46:09;;;;;;;17.83;11.35;;;0.80;96.30;;;;;;5124551;27;27662;-55
2021/01/02 03:48:53;;;;;;;24.45;12.52;;;0.80;96.30;;;;;;5124909;27;27394;-55
2021/01/02 03:51:38;;;;;;;19.77;11.85;;;0.90;96.40;;;;;;5125157;27;27455;-55
2021/01/02 03:54:23;;;;;;;19.35;11.40;;;0.90;96.40;;;;;;5125116;27;27371;-55
2021/01/02 03:57:07;;;;;;;20.75;11.00;;;0.90;96.40;;;;;;5124010;27;27327;-55
2021/01/02 03:59:51;;;;;;;20.55;11.70;;;0.90;96.40;;;;;;5124670;27;27381;-55
2021/01/02 04:02:36;;;;;;;21.83;12.43;;;0.90;96.50;;;;;;5125019;27;27419;-54
2021/01/02 04:05:20;;;;;;;19.98;12.20;;;0.90;96.50;;;;;;5124648;27;27386;-55
2021/01/02 04:08:05;;;;;;;18.77;12.20;;;0.90;96.50;;;;;;5125040;27;27423;-55
2021/01/02 04:10:49;;;;;;;19.30;11.88;;;0.90;96.50;;;;;;5124792;27;27414;-55
2021/01/02 04:13:34;;;;;;;23.10;14.55;;;1.00;96.60;;;;;;5124303;27;27461;-56
2021/01/02 04:16:19;;;;;;;22.92;13.02;;;1.00;96.60;;;;;;5124296;27;27404;-55
2021/01/02 04:19:03;;;;;;;22.20;13.43;;;1.00;96.50;;;;;;5124759;27;27475;-47
2021/01/02 04:21:48;;;;;;;21.48;13.95;;;1.00;96.60;;;;;;5124757;27;27417;-56
2021/01/02 04:24:33;;;;;;;24.08;13.75;;;0.90;97.00;;;;;;5124496;27;27422;-54
2021/01/02 04:27:17;;;;;;;19.95;13.48;;;1.00;96.70;;;;;;5120404;27;27476;-53
2021/01/02 04:30:03;;;;;;;22.17;12.63;;;1.00;96.70;;;;;;5120243;27;27389;-54
2021/01/02 04:32:49;;;;;;;22.80;14.02;;;1.00;96.70;;;;;;5124300;27;27503;-56
2021/01/02 04:35:34;;;;;;;21.10;12.85;;;1.00;96.70;;;;;;5123831;27;27579;-54
2021/01/02 04:38:18;;;;;;;23.15;12.68;;;1.00;96.70;;;;;;5124528;27;27403;-55
2021/01/02 04:41:03;;;;;;;22.83;13.25;;;1.00;96.70;;;;;;5123953;27;27418;-56
2021/01/02 04:43:48;;;;;;;25.05;14.05;;;1.00;96.70;;;;;;5127065;27;27418;-55
2021/01/02 04:46:33;;;;;;;21.48;13.00;;;1.00;96.80;;;;;;5127798;27;27470;-53
2021/01/02 04:49:17;;;;;;;25.42;13.88;;;1.00;96.70;;;;;;5126903;27;27438;-54
2021/01/02 04:52:02;;;;;;;23.95;13.70;;;1.00;96.70;;;;;;5127647;27;27414;-55
2021/01/02 04:54:50;;;;;;;20.33;12.57;;;1.10;96.90;;;;;;5127738;27;27406;-55
2021/01/02 04:57:37;;;;;;;23.90;12.88;;;1.10;96.80;;;;;;5123540;27;27476;-55
2021/01/02 05:00:21;;;;;;;19.80;12.32;;;1.10;96.90;;;;;;5127787;27;27380;-55
2021/01/02 05:03:08;;;;;;;21.50;12.77;;;1.10;96.90;;;;;;5126937;27;27334;-54
2021/01/02 05:05:52;;;;;;;26.27;14.10;;;1.10;96.90;;;;;;5127635;27;27363;-54
2021/01/02 05:08:38;;;;;;;25.70;14.35;;;1.10;96.90;;;;;;5124332;27;27323;-53
2021/01/02 05:11:24;;;;;;;22.10;12.57;;;1.10;96.90;;;;;;5123310;27;27386;-55
2021/01/02 05:14:08;;;;;;;24.05;13.32;;;1.10;96.80;;;;;;5126525;27;27349;-54
2021/01/02 05:16:53;;;;;;;24.10;13.15;;;1.10;96.80;;;;;;5123591;27;27402;-55
2021/01/02 05:19:37;;;;;;;21.60;13.07;;;1.10;96.70;;;;;;5126503;27;27375;-54
2021/01/02 05:22:25;;;;;;;25.13;13.50;;;1.10;96.80;;;;;;5127472;27;27375;-55
2021/01/02 05:25:13;;;;;;;25.05;13.82;;;1.10;96.80;;;;;;5127334;27;27322;-54
2021/01/02 05:27:58;;;;;;;27.10;14.07;;;1.10;96.70;;;;;;5127038;27;27417;-54
2021/01/02 05:30:42;;;;;;;31.27;16.80;;;1.20;96.80;;;;;;5127336;27;27391;-53
2021/01/02 05:33:27;;;;;;;23.08;13.30;;;1.20;96.80;;;;;;5126961;27;27528;-54
2021/01/02 05:36:11;;;;;;;24.20;14.32;;;1.20;96.90;;;;;;5125965;27;28087;-56
2021/01/02 05:38:57;;;;;;;29.20;14.80;;;1.20;96.80;;;;;;5111700;27;27438;-53
2021/01/02 05:41:54;;;;;;;24.85;14.32;;;1.20;96.80;;;;;;5122760;27;27442;-55
2021/01/02 05:44:39;;;;;;;30.52;15.80;;;1.20;96.80;;;;;;5126724;27;27457;-52
2021/01/02 05:47:27;;;;;;;25.52;14.00;;;1.20;96.80;;;;;;5126721;27;27873;-54
2021/01/02 05:50:12;;;;;;;29.27;14.63;;;1.20;96.90;;;;;;5125922;27;27351;-54
2021/01/02 05:52:57;;;;;;;25.80;15.00;;;1.20;96.90;;;;;;5111787;27;27464;-52
2021/01/02 05:55:41;;;;;;;32.92;16.42;;;1.20;96.90;;;;;;5122426;27;27371;-54
2021/01/02 05:58:26;;;;;;;25.52;14.00;;;1.20;97.00;;;;;;5108309;27;27956;-55
2021/01/02 06:01:14;;;;;;;25.33;14.32;;;1.20;97.00;;;;;;5126543;27;27397;-56
2021/01/02 06:03:58;;;;;;;26.50;14.43;;;1.20;97.00;;;;;;5126538;27;27360;-55
2021/01/02 06:06:43;;;;;;;23.73;13.40;;;1.20;97.00;;;;;;5126736;27;27359;-55
2021/01/02 06:09:27;;;;;;;26.08;14.77;;;1.20;96.90;;;;;;5126395;27;27887;-55
2021/01/02 06:12:11;;;;;;;23.52;13.75;;;1.20;96.90;;;;;;5126427;27;27359;-53
2021/01/02 06:15:01;;;;;;;26.25;14.57;;;1.20;96.90;;;;;;5111368;27;27359;-55
2021/01/02 06:17:49;;;;;;;28.52;15.38;;;1.20;96.90;;;;;;5126539;27;27418;-55
2021/01/02 06:20:33;;;;;;;25.65;14.75;;;1.20;96.90;;;;;;5126432;27;27414;-55
2021/01/02 06:23:18;;;;;;;24.73;14.57;;;1.20;96.90;;;;;;5111158;27;27452;-54
2021/01/02 06:26:05;;;;;;;27.73;14.77;;;1.30;97.00;;;;;;5126180;27;27542;-52
2021/01/02 06:28:50;;;;;;;25.10;13.82;;;1.30;97.00;;;;;;5125476;27;27486;-52
2021/01/02 06:31:35;;;;;;;25.35;13.57;;;1.30;97.00;;;;;;5126265;27;27410;-54
2021/01/02 06:34:20;;;;;;;23.05;13.85;;;1.30;97.00;;;;;;5125070;27;27482;-46
2021/01/02 06:37:04;;;;;;;25.55;14.57;;;1.30;97.00;;;;;;5125936;27;27443;-55
2021/01/02 06:39:49;;;;;;;27.77;14.57;;;1.30;96.90;;;;;;5125918;27;27398;-54
2021/01/02 06:42:33;;;;;;;24.08;13.70;;;1.30;97.00;;;;;;5110855;27;27875;-55
2021/01/02 06:45:38;;;;;;;23.02;12.80;;;1.30;96.90;;;;;;5126050;27;27495;-55
2021/01/02 06:48:26;;;;;;;25.52;14.32;;;1.30;97.00;;;;;;5126110;27;27477;-54
2021/01/02 06:51:27;;;;;;;23.08;13.52;;;1.30;97.00;;;;;;5126057;27;27379;-52
2021/01/02 06:54:21;;;;;;;25.83;12.27;;;1.30;97.00;;;;;;5125888;27;28060;-52
2021/01/02 06:57:06;;;;;;;24.02;13.93;;;1.30;97.00;;;;;;5125037;27;27418;-53
2021/01/02 06:59:51;;;;;;;27.55;15.05;;;1.30;97.00;;;;;;5125894;27;27472;-54
2021/01/02 07:02:35;;;;;;;24.40;14.68;;;1.30;97.00;;;;;;5125672;27;27393;-55
2021/01/02 07:05:47;;;;;;;24.65;14.20;;;1.30;97.00;;;;;;5124947;27;27402;-53
2021/01/02 07:08:45;;;;;;;23.90;13.60;;;1.30;97.00;;;;;;5122396;27;27414;-51
2021/01/02 07:11:40;;;;;;;23.15;13.48;;;1.30;97.00;;;;;;5125497;27;27323;-52
2021/01/02 07:14:25;;;;;;;24.17;13.38;;;1.30;97.00;;;;;;5125654;27;27301;-55
2021/01/02 07:17:11;;;;;;;23.15;13.38;;;1.30;97.00;;;;;;5121774;27;27318;-54
2021/01/02 07:19:57;;;;;;;25.98;13.82;;;1.30;97.00;;;;;;5125524;27;27521;-52
2021/01/02 07:22:41;;;;;;;23.25;13.68;;;1.30;97.10;;;;;;5110277;27;27529;-53
2021/01/02 07:25:26;;;;;;;21.80;13.85;;;1.30;97.10;;;;;;5124768;27;27447;-53
2021/01/02 07:28:10;;;;;;;25.92;14.93;;;1.30;97.10;;;;;;5125664;27;27658;-54
2021/01/02 07:30:58;;;;;;;21.75;13.23;;;1.30;97.00;;;;;;5125412;27;27412;-55
2021/01/02 07:33:42;;;;;;;26.92;14.57;;;1.30;97.00;;;;;;5125467;27;27041;-48
2021/01/02 07:36:27;;;;;;;22.02;12.98;;;1.30;97.00;;;;;;5124070;27;27476;-47
2021/01/02 07:39:13;;;;;;;23.23;12.55;;;1.40;97.00;;;;;;5125267;27;27417;-51
2021/01/02 07:42:01;;;;;;;23.00;12.73;;;1.40;97.00;;;;;;5124958;27;27413;-47
2021/01/02 07:44:53;;;;;;;25.80;13.48;;;1.40;97.00;;;;;;5125297;27;27340;-55
2021/01/02 07:47:39;;;;;;;24.25;13.32;;;1.40;97.00;;;;;;5124911;27;27460;-47
2021/01/02 07:50:25;;;;;;;19.77;12.40;;;1.40;96.90;;;;;;5124589;27;27515;-54
2021/01/02 07:53:10;;;;;;;23.40;13.25;;;1.40;97.00;;;;;;5124778;27;27418;-55
2021/01/02 07:55:54;;;;;;;23.60;13.70;;;1.40;96.90;;;;;;5121304;27;27451;-53
2021/01/02 07:58:38;;;;;;;23.58;13.20;;;1.40;96.90;;;;;;5109516;27;27473;-54
2021/01/02 08:01:23;;;;;;;20.67;12.07;;;1.50;96.90;;;;;;5125049;27;27440;-56
2021/01/02 08:04:07;;;;;;;21.60;12.63;;;1.50;96.90;;;;;;5124167;27;27409;-54
2021/01/02 08:07:05;;;;;;;22.70;13.60;;;1.50;96.90;;;;;;5109590;27;27459;-52
2021/01/02 08:09:50;;;;;;;19.83;12.38;;;1.50;96.80;;;;;;5121328;27;27444;-55
2021/01/02 08:12:36;;;;;;;21.92;12.32;;;1.50;96.80;;;;;;5124836;27;27490;-47
2021/01/02 08:15:28;;;;;;;19.88;11.43;;;1.60;96.90;;;;;;5123505;27;27398;-53
2021/01/02 08:18:13;;;;;;;18.77;11.43;;;1.60;96.80;;;;;;5126724;27;27414;-54
2021/01/02 08:21:00;;;;;;;22.15;13.13;;;1.60;96.80;;;;;;5128422;27;27448;-54
2021/01/02 08:23:45;;;;;;;21.08;12.35;;;1.60;96.80;;;;;;5128361;27;27488;-55
2021/01/02 08:26:30;;;;;;;21.85;11.93;;;1.60;96.80;;;;;;5127511;27;27411;-54
2021/01/02 08:29:15;;;;;;;22.75;12.13;;;1.60;96.80;;;;;;5112817;27;27474;-52
2021/01/02 08:32:10;;;;;;;19.70;11.60;;;1.60;96.70;;;;;;5128171;27;27536;-53
2021/01/02 08:34:54;;;;;;;20.10;11.18;;;1.60;96.70;;;;;;5126756;27;27953;-48
2021/01/02 08:37:38;;;;;;;19.83;11.25;;;1.60;96.70;;;;;;5127800;27;27484;-55
2021/01/02 08:40:23;;;;;;;23.63;12.00;;;1.60;96.70;;;;;;5127839;27;27422;-51
2021/01/02 08:43:18;;;;;;;20.08;12.15;;;1.60;96.70;;;;;;5127459;27;27456;-50
2021/01/02 08:46:03;;;;;;;23.05;12.77;;;1.70;96.60;;;;;;5127734;27;27476;-53
2021/01/02 08:48:48;;;;;;;23.05;12.60;;;1.70;96.60;;;;;;5127626;27;27422;-54
2021/01/02 08:51:32;;;;;;;20.25;11.60;;;1.70;96.60;;;;;;5128021;27;27434;-54
2021/01/02 08:54:17;;;;;;;21.55;12.13;;;1.70;96.70;;;;;;5127560;27;27451;-54
2021/01/02 08:57:01;;;;;;;23.17;11.52;;;1.70;96.60;;;;;;5127234;27;27528;-55
2021/01/02 08:59:46;;;;;;;22.35;12.43;;;1.80;96.60;;;;;;5124436;27;27480;-55
2021/01/02 09:02:30;;;;;;;18.48;11.07;;;1.80;96.50;;;;;;5127803;27;27417;-54
2021/01/02 09:05:32;;;;;;;21.15;11.57;;;1.80;96.90;;;;;;5127687;27;27315;-54
2021/01/02 09:08:18;;;;;;;20.77;12.63;;;1.90;96.50;;;;;;5127589;27;27340;-55
2021/01/02 09:11:02;;;;;;;20.92;11.57;;;1.90;96.40;;;;;;5126968;27;27395;-55
2021/01/02 09:13:46;;;;;;;21.50;12.07;;;1.90;96.40;;;;;;5126910;27;27335;-53
2021/01/02 09:16:34;;;;;;;19.73;11.07;;;2.00;96.20;;;;;;5127364;27;27386;-47
2021/01/02 09:19:25;;;;;;;20.00;11.35;;;2.00;96.20;;;;;;5127201;27;27961;-57
2021/01/02 09:22:16;;;;;;;19.45;10.23;;;2.10;96.50;;;;;;5126383;27;27512;-50
2021/01/02 09:25:11;;;;;;;19.42;11.52;;;2.10;96.10;;;;;;5127474;27;27454;-53
2021/01/02 09:27:56;;;;;;;18.90;10.57;;;2.10;96.00;;;;;;5127182;27;26870;-55
2021/01/02 09:30:42;;;;;;;23.40;11.50;;;2.20;96.00;;;;;;5127270;27;27880;-56
2021/01/02 09:33:26;;;;;;;18.55;10.75;;;2.20;95.90;;;;;;5126927;27;27422;-56
2021/01/02 09:36:14;;;;;;;18.45;10.48;;;2.30;95.90;;;;;;5126147;27;27449;-54
2021/01/02 09:38:59;;;;;;;20.17;10.38;;;2.30;95.80;;;;;;5126407;27;27520;-54
2021/01/02 09:41:44;;;;;;;16.98;10.43;;;2.40;95.80;;;;;;5127116;27;27457;-54
2021/01/02 09:44:28;;;;;;;17.95;10.63;;;2.50;95.70;;;;;;5127055;27;27449;-55
2021/01/02 09:47:29;;;;;;;17.40;10.40;;;2.50;95.60;;;;;;5127054;27;27471;-47
2021/01/02 09:50:14;;;;;;;20.30;10.85;;;2.70;95.50;;;;;;5126229;27;27374;-54
2021/01/02 09:53:00;;;;;;;16.85;10.77;;;2.80;95.30;;;;;;5126855;27;27404;-56
2021/01/02 09:55:45;;;;;;;15.85;9.85;;;3.00;95.20;;;;;;5126510;27;27417;-55
2021/01/02 09:58:29;;;;;;;19.27;10.50;;;3.10;95.10;;;;;;5126941;27;27400;-54
2021/01/02 10:01:14;;;;;;;17.33;10.43;;;3.20;94.90;;;;;;5126605;27;27369;-56
2021/01/02 10:03:59;;;;;;;17.08;10.18;;;3.40;94.70;;;;;;5122397;27;27323;-54
2021/01/02 10:06:44;;;;;;;19.77;10.43;;;3.50;94.60;;;;;;5126072;27;27463;-55
2021/01/02 10:09:29;;;;;;;15.27;9.50;;;3.60;94.50;;;;;;5126424;27;27366;-54
2021/01/02 10:12:15;;;;;;;16.33;9.43;;;3.70;94.40;;;;;;5126668;27;27394;-55
2021/01/02 10:14:59;;;;;;;13.32;8.80;;;3.80;94.40;;;;;;5126200;27;27348;-54
2021/01/02 10:17:44;;;;;;;15.50;9.93;;;3.90;94.30;;;;;;5126242;27;27351;-47
2021/01/02 10:20:28;;;;;;;17.83;9.35;;;4.00;94.10;;;;;;5126268;27;27065;-55
2021/01/02 10:23:13;;;;;;;17.10;10.15;;;4.00;93.90;;;;;;5126451;27;27305;-54
2021/01/02 10:25:58;;;;;;;16.67;9.73;;;4.10;93.90;;;;;;5125980;27;27344;-56
2021/01/02 10:28:42;;;;;;;15.20;9.32;;;4.10;93.90;;;;;;5126059;27;27349;-54
2021/01/02 10:31:26;;;;;;;15.65;9.43;;;4.20;93.90;;;;;;5125652;27;27347;-55
2021/01/02 10:34:11;;;;;;;15.63;9.73;;;4.30;93.80;;;;;;5125924;27;27359;-53
2021/01/02 10:36:55;;;;;;;17.38;10.30;;;4.40;93.70;;;;;;5125907;27;27458;-55
2021/01/02 10:39:41;;;;;;;19.00;9.50;;;4.50;93.70;;;;;;5125716;27;27453;-54
2021/01/02 10:42:28;;;;;;;15.45;9.38;;;4.50;93.60;;;;;;5125923;27;27332;-55
2021/01/02 10:45:14;;;;;;;16.58;10.75;;;4.60;93.50;;;;;;5136444;27;27320;-55
2021/01/02 10:47:59;;;;;;;17.20;10.75;;;4.70;93.40;;;;;;5125754;27;27335;-56
2021/01/02 10:50:44;;;;;;;16.88;10.40;;;4.70;93.30;;;;;;5122702;27;27358;-54
2021/01/02 10:53:28;;;;;;;17.02;9.93;;;4.80;93.20;;;;;;5125997;27;27350;-54
2021/01/02 10:56:17;;;;;;;16.65;10.82;;;4.80;93.10;;;;;;5125515;27;27381;-55
2021/01/02 10:59:02;;;;;;;17.40;11.30;;;4.90;92.90;;;;;;5125868;27;27528;-55
2021/01/02 11:01:49;;;;;;;18.88;11.70;;;5.00;92.80;;;;;;5125157;27;27476;-56
2021/01/02 11:04:37;;;;;;;16.88;11.65;;;5.10;92.80;;;;;;5125645;27;27488;-47
2021/01/02 11:07:23;;;;;;;19.48;11.23;;;5.20;92.70;;;;;;5125523;27;27325;-53
2021/01/02 11:10:09;;;;;;;17.80;10.55;;;5.30;92.60;;;;;;5125745;27;27391;-55
2021/01/02 11:12:54;;;;;;;15.73;10.00;;;5.30;92.70;;;;;;5125413;27;27406;-47
2021/01/02 11:15:38;;;;;;;18.25;11.35;;;5.40;92.60;;;;;;5125594;27;27378;-53
2021/01/02 11:18:23;;;;;;;17.08;11.75;;;5.50;92.30;;;;;;5125396;27;27319;-55
2021/01/02 11:21:09;;;;;;;18.75;12.52;;;5.50;92.00;;;;;;5125504;27;27433;-54
2021/01/02 11:23:53;;;;;;;20.77;12.88;;;5.60;91.90;;;;;;5125477;27;27389;-54
2021/01/02 11:26:43;;;;;;;20.08;12.32;;;5.70;91.90;;;;;;5125205;27;27390;-55
2021/01/02 11:29:29;;;;;;;19.55;12.18;;;5.70;92.00;;;;;;5124831;27;27399;-48
2021/01/02 11:32:14;;;;;;;20.80;12.57;;;5.80;92.00;;;;;;5125417;27;27978;-53
2021/01/02 11:35:00;;;;;;;19.35;11.70;;;5.90;91.90;;;;;;5124493;27;27442;-55
2021/01/02 11:37:45;;;;;;;17.52;11.95;;;6.00;91.80;;;;;;5125080;27;27421;-56
2021/01/02 11:40:36;;;;;;;20.10;12.57;;;6.00;91.80;;;;;;5125313;27;27384;-48
2021/01/02 11:43:23;;;;;;;19.15;12.25;;;6.00;91.80;;;;;;5125253;27;27460;-56
2021/01/02 11:46:08;;;;;;;18.08;12.27;;;6.10;91.80;;;;;;5124813;27;27464;-54
2021/01/02 11:48:52;;;;;;;18.73;12.38;;;6.10;91.70;;;;;;5125019;27;27468;-56
2021/01/02 11:51:37;;;;;;;17.63;11.20;;;6.10;91.60;;;;;;5126120;27;27459;-54
2021/01/02 11:54:21;;;;;;;17.05;11.23;;;6.20;91.90;;;;;;5128820;27;27895;-52
2021/01/02 11:57:06;;;;;;;18.73;12.07;;;6.20;91.60;;;;;;5127953;27;27519;-55
2021/01/02 11:59:51;;;;;;;18.55;12.15;;;6.20;91.70;;;;;;5128608;27;27500;-55
2021/01/02 12:02:38;;;;;;;19.40;12.00;;;6.20;91.70;;;;;;5124656;27;27311;-55
2021/01/02 12:05:22;;;;;;;20.13;12.10;;;6.20;91.70;;;;;;5128663;27;27495;-55
2021/01/02 12:08:07;;;;;;;19.30;12.30;;;6.30;91.60;;;;;;5128348;27;27426;-55
2021/01/02 12:10:51;;;;;;;15.93;10.55;;;6.30;91.40;;;;;;5128522;27;27537;-55
2021/01/02 12:13:41;;;;;;;18.67;11.27;;;6.30;91.40;;;;;;5128465;27;27370;-55
2021/01/02 12:16:36;;;;;;;18.33;11.45;;;6.30;91.50;;;;;;5123804;27;27422;-56
2021/01/02 12:19:23;;;;;;;19.02;10.85;;;6.30;91.50;;;;;;5128185;27;27378;-49
2021/01/02 12:22:08;;;;;;;17.17;10.10;;;6.30;91.40;;;;;;5128476;27;27308;-55
2021/01/02 12:24:53;;;;;;;19.63;10.57;;;6.40;91.30;;;;;;5127744;27;27312;-56
2021/01/02 12:27:37;;;;;;;16.88;10.65;;;6.30;91.50;;;;;;5128266;27;27405;-56
2021/01/02 12:30:22;;;;;;;15.13;10.32;;;6.30;91.30;;;;;;5127542;27;27417;-56
2021/01/02 12:33:07;;;;;;;15.85;10.15;;;6.20;91.50;;;;;;5128048;27;27371;-54
2021/01/02 12:35:51;;;;;;;15.05;10.32;;;6.20;91.60;;;;;;5127292;27;27344;-56
2021/01/02 12:38:40;;;;;;;15.82;9.43;;;6.10;91.60;;;;;;5128178;27;27405;-55
2021/01/02 12:41:24;;;;;;;16.15;9.75;;;6.00;91.60;;;;;;5127811;27;27340;-54
2021/01/02 12:44:10;;;;;;;14.93;9.90;;;6.00;91.60;;;;;;5127816;27;27435;-55
2021/01/02 12:47:04;;;;;;;15.18;10.18;;;6.00;91.40;;;;;;5128064;27;27314;-56
2021/01/02 12:49:49;;;;;;;14.02;9.70;;;6.00;91.60;;;;;;5128107;27;27398;-47
2021/01/02 12:52:33;;;;;;;14.13;9.55;;;6.10;91.60;;;;;;5124346;27;27374;-47
2021/01/02 12:55:18;;;;;;;13.85;9.27;;;6.10;91.50;;;;;;5127899;27;27453;-56
2021/01/02 12:58:02;;;;;;;14.88;9.70;;;6.10;91.00;;;;;;5127635;27;27327;-54
2021/01/02 13:00:47;;;;;;;14.38;10.23;;;6.10;90.90;;;;;;5127515;27;27331;-55
2021/01/02 13:03:32;;;;;;;14.73;9.57;;;6.20;90.90;;;;;;5126752;27;27421;-55
2021/01/02 13:06:17;;;;;;;15.75;9.02;;;6.20;90.80;;;;;;5127785;27;27335;-49
2021/01/02 13:09:02;;;;;;;15.30;9.68;;;6.20;90.80;;;;;;5127646;27;27339;-54
2021/01/02 13:11:49;;;;;;;15.05;9.57;;;6.20;90.70;;;;;;5127595;27;27977;-55
2021/01/02 13:14:34;;;;;;;12.38;8.57;;;6.10;90.70;;;;;;5127645;27;27398;-54
2021/01/02 13:17:18;;;;;;;15.70;9.45;;;6.10;90.90;;;;;;5127005;27;27343;-55
2021/01/02 13:20:04;;;;;;;16.35;9.75;;;6.10;90.80;;;;;;5126861;27;27331;-54
2021/01/02 13:22:48;;;;;;;14.32;9.65;;;6.10;90.90;;;;;;5127156;27;27395;-54
2021/01/02 13:25:33;;;;;;;16.35;9.93;;;6.00;91.00;;;;;;5127133;27;27427;-54
2021/01/02 13:28:17;;;;;;;13.57;9.27;;;5.90;91.10;;;;;;5123429;27;27385;-52
2021/01/02 13:31:02;;;;;;;13.88;9.82;;;5.80;91.10;;;;;;5127143;27;27377;-55
2021/01/02 13:33:46;;;;;;;14.73;9.30;;;5.70;91.20;;;;;;5127000;27;27351;-52
2021/01/02 13:36:30;;;;;;;14.40;9.75;;;5.70;91.40;;;;;;5126000;27;27576;-48
2021/01/02 13:39:17;;;;;;;13.25;8.65;;;5.60;91.50;;;;;;5127371;27;27419;-54
2021/01/02 13:42:02;;;;;;;15.57;10.57;;;5.50;91.60;;;;;;5126937;27;27377;-54
2021/01/02 13:44:46;;;;;;;16.42;10.82;;;5.40;91.70;;;;;;5126862;27;27396;-54
2021/01/02 13:47:32;;;;;;;16.25;10.95;;;5.30;91.70;;;;;;5123504;27;27424;-54
2021/01/02 13:50:16;;;;;;;17.98;11.30;;;5.20;91.80;;;;;;5126838;27;27396;-54
2021/01/02 13:53:01;;;;;;;16.48;10.00;;;5.10;91.80;;;;;;5126907;27;27472;-55
2021/01/02 13:55:46;;;;;;;16.27;10.75;;;5.10;91.90;;;;;;5126680;27;27447;-53
2021/01/02 13:58:31;;;;;;;16.52;10.90;;;4.90;92.00;;;;;;5126786;27;27489;-54
2021/01/02 14:01:19;;;;;;;17.35;11.23;;;4.90;92.10;;;;;;5126826;27;27545;-53
2021/01/02 14:04:04;;;;;;;21.02;11.73;;;4.80;92.20;;;;;;5126773;27;27380;-54
2021/01/02 14:06:50;;;;;;;19.45;10.85;;;4.70;92.30;;;;;;5125698;27;27393;-53
2021/01/02 14:09:35;;;;;;;20.08;11.95;;;4.70;92.50;;;;;;5126712;27;27385;-55
2021/01/02 14:12:20;;;;;;;18.48;11.93;;;4.70;92.60;;;;;;5126721;27;27335;-52
2021/01/02 14:15:06;;;;;;;19.27;11.70;;;4.70;92.50;;;;;;5124664;27;27355;-53
2021/01/02 14:17:51;;;;;;;19.40;11.68;;;4.70;92.70;;;;;;5126301;27;27876;-54
2021/01/02 14:20:35;;;;;;;18.05;11.63;;;4.70;92.70;;;;;;5126583;27;27494;-54
2021/01/02 14:23:20;;;;;;;20.08;12.07;;;4.70;92.70;;;;;;5126589;27;27393;-54